Cotonou, Benin

11:19 PM WAT on December 25, 2014 (GMT +0100)
Cadjehoun | Change Station
CLOSE
Current Station
Airport
Location: Cotonou,
Elevation: 16 ft
Nearby Weather Stations

Elev 16 ft 6.36 °N, 2.38 °E | Updated 19 minutes ago

Mist
Mist
79 °F
Feels Like 79 °F
N
0
Wind Variable Wind from North

Today
High -- | Low -- °F
--% Chance of Precip.
Yesterday
High -- | Low -- °F
Precip. -- in
6:57 AM 6:43 PM
Waxing Crescent, 19% visible
Pressure 29.92 in
Visibility 2.5 miles
Clouds
Dew Point 77 °F
Humidity 94%
Rainfall 0.00 in
Snow Depth Not available.
UV Not available.
Pollen Not available.
Air Quality Not available.
Flu Activity Not available.
METAR DBBB 252200Z 00000KT 4000 BR NSC 26/25 Q1013 NOSIG

More Conditions Fewer Conditions

Pressure 29.92 in
Visibility 2.5 miles
Clouds
Dew Point 77 °F
Humidity 94%
Rainfall 0.00 in
Snow Depth Not available.
UV Not available.
Pollen Not available.
Air Quality Not available.
Flu Activity Not available.
METAR DBBB 252200Z 00000KT 4000 BR NSC 26/25 Q1013 NOSIG

More Conditions Fewer Conditions

10-Day Weather Forecast

Almanac

Astronomy

Dec. 25, 2014 Rise Set
Actual Time
Civil Twilight
Nautical Twilight
Astronomical Twilight
Moon
Length of Visible Light
Length of Day
Tomorrow will be .
, % of the Moon is Illuminated

Today's Extremes

Country Highs Country Lows

Community

WunderPhotos

Upload Photos

1,780,424 photos uploaded!

WunderBlogs® & News

Nearby

Air Quality

  Air Quality AQ Index Pollutant
Not available.

Snow Depth

Station Depth Elevation

Earthquake Activity

City Distance Mag. Time & Date
Minimum magnitude displayed is 2.5.

Coastal Water Temperatures

Place Temperature

Nearby Weather Stations